sensor_id;sensor_type;location;lat;lon;timestamp;temperature;humidity
18450;DHT22;9354;50.194;7.690;2022-08-11T00:02:32;21.80;66.20
18450;DHT22;9354;50.194;7.690;2022-08-11T00:05:04;21.70;66.30
18450;DHT22;9354;50.194;7.690;2022-08-11T00:07:34;21.60;66.30
18450;DHT22;9354;50.194;7.690;2022-08-11T00:10:12;21.60;66.50
18450;DHT22;9354;50.194;7.690;2022-08-11T00:12:41;21.60;66.70
18450;DHT22;9354;50.194;7.690;2022-08-11T00:15:09;21.60;66.80
18450;DHT22;9354;50.194;7.690;2022-08-11T00:17:37;21.60;66.80
18450;DHT22;9354;50.194;7.690;2022-08-11T00:20:10;21.60;66.90
18450;DHT22;9354;50.194;7.690;2022-08-11T00:22:39;21.60;66.90
18450;DHT22;9354;50.194;7.690;2022-08-11T00:25:11;21.60;66.90
18450;DHT22;9354;50.194;7.690;2022-08-11T00:27:40;21.70;66.90
18450;DHT22;9354;50.194;7.690;2022-08-11T00:30:09;21.70;67.00
18450;DHT22;9354;50.194;7.690;2022-08-11T00:32:38;21.70;67.40
18450;DHT22;9354;50.194;7.690;2022-08-11T00:35:11;21.70;67.50
18450;DHT22;9354;50.194;7.690;2022-08-11T00:37:44;21.70;67.40
18450;DHT22;9354;50.194;7.690;2022-08-11T00:40:22;21.60;67.40
18450;DHT22;9354;50.194;7.690;2022-08-11T00:43:00;21.60;67.50
18450;DHT22;9354;50.194;7.690;2022-08-11T00:45:34;21.60;67.60
18450;DHT22;9354;50.194;7.690;2022-08-11T00:48:18;21.50;67.80
18450;DHT22;9354;50.194;7.690;2022-08-11T00:51:01;21.50;68.10
18450;DHT22;9354;50.194;7.690;2022-08-11T00:53:43;21.40;67.90
18450;DHT22;9354;50.194;7.690;2022-08-11T00:59:47;21.20;68.80
18450;DHT22;9354;50.194;7.690;2022-08-11T01:02:19;21.00;68.70
18450;DHT22;9354;50.194;7.690;2022-08-11T01:05:34;21.00;69.00
18450;DHT22;9354;50.194;7.690;2022-08-11T01:08:35;20.90;69.40
18450;DHT22;9354;50.194;7.690;2022-08-11T01:11:28;20.80;69.80
18450;DHT22;9354;50.194;7.690;2022-08-11T01:14:23;20.80;70.20
18450;DHT22;9354;50.194;7.690;2022-08-11T01:17:27;20.70;70.40
18450;DHT22;9354;50.194;7.690;2022-08-11T01:20:18;20.60;70.60
18450;DHT22;9354;50.194;7.690;2022-08-11T01:29:30;20.40;71.40
18450;DHT22;9354;50.194;7.690;2022-08-11T01:35:29;20.40;72.30
18450;DHT22;9354;50.194;7.690;2022-08-11T01:41:30;20.40;72.50
18450;DHT22;9354;50.194;7.690;2022-08-11T01:44:28;20.30;72.60
18450;DHT22;9354;50.194;7.690;2022-08-11T01:47:16;20.20;72.60
18450;DHT22;9354;50.194;7.690;2022-08-11T01:50:08;20.10;72.90
18450;DHT22;9354;50.194;7.690;2022-08-11T01:52:53;20.10;73.10
18450;DHT22;9354;50.194;7.690;2022-08-11T01:55:31;20.00;73.20
18450;DHT22;9354;50.194;7.690;2022-08-11T01:58:07;19.90;73.30
18450;DHT22;9354;50.194;7.690;2022-08-11T02:00:49;19.90;73.50
18450;DHT22;9354;50.194;7.690;2022-08-11T02:03:26;19.80;73.70
18450;DHT22;9354;50.194;7.690;2022-08-11T02:06:01;19.80;74.00
18450;DHT22;9354;50.194;7.690;2022-08-11T02:09:01;19.70;74.00
18450;DHT22;9354;50.194;7.690;2022-08-11T02:11:32;19.80;74.20
18450;DHT22;9354;50.194;7.690;2022-08-11T02:14:09;19.80;74.20
18450;DHT22;9354;50.194;7.690;2022-08-11T02:16:55;19.80;74.20
18450;DHT22;9354;50.194;7.690;2022-08-11T02:19:32;19.80;74.30
18450;DHT22;9354;50.194;7.690;2022-08-11T02:22:29;19.80;74.50
18450;DHT22;9354;50.194;7.690;2022-08-11T02:25:22;19.90;75.00
18450;DHT22;9354;50.194;7.690;2022-08-11T02:28:02;19.90;75.00
18450;DHT22;9354;50.194;7.690;2022-08-11T02:30:37;19.90;75.30
18450;DHT22;9354;50.194;7.690;2022-08-11T02:33:16;19.90;75.30
18450;DHT22;9354;50.194;7.690;2022-08-11T02:35:57;19.90;75.50
18450;DHT22;9354;50.194;7.690;2022-08-11T02:38:32;19.80;75.50
18450;DHT22;9354;50.194;7.690;2022-08-11T02:41:09;19.80;75.60
18450;DHT22;9354;50.194;7.690;2022-08-11T02:44:07;19.70;75.70
18450;DHT22;9354;50.194;7.690;2022-08-11T02:46:47;19.70;75.90
18450;DHT22;9354;50.194;7.690;2022-08-11T02:49:25;19.60;75.90
18450;DHT22;9354;50.194;7.690;2022-08-11T02:52:19;19.60;75.90
18450;DHT22;9354;50.194;7.690;2022-08-11T02:54:56;19.50;75.90
18450;DHT22;9354;50.194;7.690;2022-08-11T02:57:36;19.50;76.10
18450;DHT22;9354;50.194;7.690;2022-08-11T03:00:07;19.40;76.20
18450;DHT22;9354;50.194;7.690;2022-08-11T03:03:02;19.30;76.30
18450;DHT22;9354;50.194;7.690;2022-08-11T03:05:44;19.30;76.50
18450;DHT22;9354;50.194;7.690;2022-08-11T03:08:29;19.30;76.50
18450;DHT22;9354;50.194;7.690;2022-08-11T03:11:04;19.20;76.60
18450;DHT22;9354;50.194;7.690;2022-08-11T03:14:04;19.20;76.70
18450;DHT22;9354;50.194;7.690;2022-08-11T03:16:55;19.20;76.90
18450;DHT22;9354;50.194;7.690;2022-08-11T03:19:32;19.20;77.00
18450;DHT22;9354;50.194;7.690;2022-08-11T03:22:08;19.10;77.10
18450;DHT22;9354;50.194;7.690;2022-08-11T03:24:50;19.10;77.20
18450;DHT22;9354;50.194;7.690;2022-08-11T03:27:31;19.10;77.60
18450;DHT22;9354;50.194;7.690;2022-08-11T03:30:12;19.10;77.70
18450;DHT22;9354;50.194;7.690;2022-08-11T03:33:04;19.10;77.80
18450;DHT22;9354;50.194;7.690;2022-08-11T03:36:04;19.10;78.10
18450;DHT22;9354;50.194;7.690;2022-08-11T03:38:45;19.10;78.10
18450;DHT22;9354;50.194;7.690;2022-08-11T03:41:22;19.00;78.20
18450;DHT22;9354;50.194;7.690;2022-08-11T03:44:31;19.00;78.30
18450;DHT22;9354;50.194;7.690;2022-08-11T03:47:21;19.00;78.30
18450;DHT22;9354;50.194;7.690;2022-08-11T03:50:01;19.00;78.30
18450;DHT22;9354;50.194;7.690;2022-08-11T03:52:43;19.00;78.20
18450;DHT22;9354;50.194;7.690;2022-08-11T03:55:22;18.90;78.10
18450;DHT22;9354;50.194;7.690;2022-08-11T04:01:26;18.80;78.20
18450;DHT22;9354;50.194;7.690;2022-08-11T04:04:41;18.70;78.50
18450;DHT22;9354;50.194;7.690;2022-08-11T04:07:47;18.70;78.50
18450;DHT22;9354;50.194;7.690;2022-08-11T04:10:40;18.60;78.40
18450;DHT22;9354;50.194;7.690;2022-08-11T04:16:46;18.50;78.80
18450;DHT22;9354;50.194;7.690;2022-08-11T04:22:48;18.30;79.40
18450;DHT22;9354;50.194;7.690;2022-08-11T04:25:29;18.30;79.50
18450;DHT22;9354;50.194;7.690;2022-08-11T04:31:07;18.30;79.80
18450;DHT22;9354;50.194;7.690;2022-08-11T04:33:58;18.20;79.80
18450;DHT22;9354;50.194;7.690;2022-08-11T04:36:45;18.30;80.10
18450;DHT22;9354;50.194;7.690;2022-08-11T04:39:46;18.30;80.50
18450;DHT22;9354;50.194;7.690;2022-08-11T04:43:12;18.30;80.60
18450;DHT22;9354;50.194;7.690;2022-08-11T04:46:21;18.30;81.00
18450;DHT22;9354;50.194;7.690;2022-08-11T04:49:12;18.40;81.10
18450;DHT22;9354;50.194;7.690;2022-08-11T04:52:15;18.50;81.60
18450;DHT22;9354;50.194;7.690;2022-08-11T04:55:25;18.50;81.50
18450;DHT22;9354;50.194;7.690;2022-08-11T04:58:25;18.60;81.70
18450;DHT22;9354;50.194;7.690;2022-08-11T05:01:27;18.60;81.70
18450;DHT22;9354;50.194;7.690;2022-08-11T05:04:42;18.70;82.40
18450;DHT22;9354;50.194;7.690;2022-08-11T05:10:53;18.70;81.60
18450;DHT22;9354;50.194;7.690;2022-08-11T05:13:27;18.80;82.10
18450;DHT22;9354;50.194;7.690;2022-08-11T05:16:18;18.80;82.30
18450;DHT22;9354;50.194;7.690;2022-08-11T05:19:05;18.90;82.50
18450;DHT22;9354;50.194;7.690;2022-08-11T05:21:53;18.90;82.60
18450;DHT22;9354;50.194;7.690;2022-08-11T05:24:56;19.00;82.30
18450;DHT22;9354;50.194;7.690;2022-08-11T05:27:54;19.10;82.30
18450;DHT22;9354;50.194;7.690;2022-08-11T05:30:42;19.20;81.50
18450;DHT22;9354;50.194;7.690;2022-08-11T05:33:33;19.20;81.30
18450;DHT22;9354;50.194;7.690;2022-08-11T05:36:26;19.30;81.50
18450;DHT22;9354;50.194;7.690;2022-08-11T05:38:58;19.40;81.30
18450;DHT22;9354;50.194;7.690;2022-08-11T05:41:44;19.50;81.00
18450;DHT22;9354;50.194;7.690;2022-08-11T05:44:31;19.60;80.90
18450;DHT22;9354;50.194;7.690;2022-08-11T05:47:23;19.70;80.90
18450;DHT22;9354;50.194;7.690;2022-08-11T05:50:09;19.70;80.70
18450;DHT22;9354;50.194;7.690;2022-08-11T05:52:55;19.80;80.40
18450;DHT22;9354;50.194;7.690;2022-08-11T05:55:41;19.90;80.20
18450;DHT22;9354;50.194;7.690;2022-08-11T05:58:32;19.90;79.90
18450;DHT22;9354;50.194;7.690;2022-08-11T06:01:01;20.00;79.70
18450;DHT22;9354;50.194;7.690;2022-08-11T06:03:29;20.10;79.50
18450;DHT22;9354;50.194;7.690;2022-08-11T06:06:19;20.20;79.30
18450;DHT22;9354;50.194;7.690;2022-08-11T06:08:47;20.30;79.10
18450;DHT22;9354;50.194;7.690;2022-08-11T06:11:15;20.30;78.90
18450;DHT22;9354;50.194;7.690;2022-08-11T06:13:44;20.40;78.80
18450;DHT22;9354;50.194;7.690;2022-08-11T06:16:14;20.40;78.50
18450;DHT22;9354;50.194;7.690;2022-08-11T06:18:48;20.50;78.30
18450;DHT22;9354;50.194;7.690;2022-08-11T06:21:16;20.60;78.10
18450;DHT22;9354;50.194;7.690;2022-08-11T06:23:44;20.60;77.90
18450;DHT22;9354;50.194;7.690;2022-08-11T06:26:13;20.70;77.80
18450;DHT22;9354;50.194;7.690;2022-08-11T06:28:43;20.80;77.60
18450;DHT22;9354;50.194;7.690;2022-08-11T06:31:15;20.90;77.40
18450;DHT22;9354;50.194;7.690;2022-08-11T06:33:55;21.00;76.90
18450;DHT22;9354;50.194;7.690;2022-08-11T06:36:31;21.00;76.70
18450;DHT22;9354;50.194;7.690;2022-08-11T06:39:09;21.20;76.40
18450;DHT22;9354;50.194;7.690;2022-08-11T06:41:45;21.20;75.90
18450;DHT22;9354;50.194;7.690;2022-08-11T06:44:19;21.30;75.70
18450;DHT22;9354;50.194;7.690;2022-08-11T06:46:51;21.30;75.50
18450;DHT22;9354;50.194;7.690;2022-08-11T06:49:25;21.40;75.50
18450;DHT22;9354;50.194;7.690;2022-08-11T06:52:16;21.50;75.50
18450;DHT22;9354;50.194;7.690;2022-08-11T06:54:50;21.60;75.30
18450;DHT22;9354;50.194;7.690;2022-08-11T06:57:29;21.70;75.10
18450;DHT22;9354;50.194;7.690;2022-08-11T07:00:15;21.80;74.90
18450;DHT22;9354;50.194;7.690;2022-08-11T07:02:59;21.80;74.80
18450;DHT22;9354;50.194;7.690;2022-08-11T07:05:37;21.90;74.60
18450;DHT22;9354;50.194;7.690;2022-08-11T07:08:31;22.00;74.40
18450;DHT22;9354;50.194;7.690;2022-08-11T07:14:27;22.20;73.80
18450;DHT22;9354;50.194;7.690;2022-08-11T07:17:15;22.30;73.60
18450;DHT22;9354;50.194;7.690;2022-08-11T07:19:51;22.40;73.40
18450;DHT22;9354;50.194;7.690;2022-08-11T07:22:36;22.50;73.10
18450;DHT22;9354;50.194;7.690;2022-08-11T07:25:32;22.60;73.80
18450;DHT22;9354;50.194;7.690;2022-08-11T07:28:23;22.70;72.70
18450;DHT22;9354;50.194;7.690;2022-08-11T07:31:10;22.80;72.60
18450;DHT22;9354;50.194;7.690;2022-08-11T07:33:43;22.90;72.40
18450;DHT22;9354;50.194;7.690;2022-08-11T07:36:13;23.00;72.10
18450;DHT22;9354;50.194;7.690;2022-08-11T07:38:44;23.10;71.70
18450;DHT22;9354;50.194;7.690;2022-08-11T07:41:21;23.20;71.30
18450;DHT22;9354;50.194;7.690;2022-08-11T07:43:51;23.30;71.00
18450;DHT22;9354;50.194;7.690;2022-08-11T07:46:21;23.40;70.80
18450;DHT22;9354;50.194;7.690;2022-08-11T07:49:07;23.50;70.80
18450;DHT22;9354;50.194;7.690;2022-08-11T07:51:55;23.60;70.50
18450;DHT22;9354;50.194;7.690;2022-08-11T07:54:41;23.80;70.10
18450;DHT22;9354;50.194;7.690;2022-08-11T07:57:09;24.00;69.80
18450;DHT22;9354;50.194;7.690;2022-08-11T07:59:57;24.20;69.60
18450;DHT22;9354;50.194;7.690;2022-08-11T08:02:42;24.40;69.20
18450;DHT22;9354;50.194;7.690;2022-08-11T08:05:28;24.60;68.80
18450;DHT22;9354;50.194;7.690;2022-08-11T08:08:15;24.80;68.50
18450;DHT22;9354;50.194;7.690;2022-08-11T08:11:00;25.00;67.90
18450;DHT22;9354;50.194;7.690;2022-08-11T08:13:46;25.30;67.50
18450;DHT22;9354;50.194;7.690;2022-08-11T08:16:31;25.50;66.70
18450;DHT22;9354;50.194;7.690;2022-08-11T08:19:19;25.80;66.10
18450;DHT22;9354;50.194;7.690;2022-08-11T08:21:47;26.10;65.80
18450;DHT22;9354;50.194;7.690;2022-08-11T08:24:18;26.40;65.30
18450;DHT22;9354;50.194;7.690;2022-08-11T08:26:47;26.70;64.50
18450;DHT22;9354;50.194;7.690;2022-08-11T08:29:25;26.90;64.00
18450;DHT22;9354;50.194;7.690;2022-08-11T08:32:11;27.20;63.40
18450;DHT22;9354;50.194;7.690;2022-08-11T08:34:39;27.40;62.80
18450;DHT22;9354;50.194;7.690;2022-08-11T08:37:07;27.60;62.40
18450;DHT22;9354;50.194;7.690;2022-08-11T08:39:36;27.80;62.90
18450;DHT22;9354;50.194;7.690;2022-08-11T08:42:08;28.00;61.50
18450;DHT22;9354;50.194;7.690;2022-08-11T08:44:40;28.10;61.20
18450;DHT22;9354;50.194;7.690;2022-08-11T08:47:12;28.30;60.70
18450;DHT22;9354;50.194;7.690;2022-08-11T08:49:48;28.50;59.90
18450;DHT22;9354;50.194;7.690;2022-08-11T08:52:19;28.70;59.60
18450;DHT22;9354;50.194;7.690;2022-08-11T08:54:53;28.80;59.50
18450;DHT22;9354;50.194;7.690;2022-08-11T08:57:22;28.90;59.00
18450;DHT22;9354;50.194;7.690;2022-08-11T08:59:50;29.00;58.90
18450;DHT22;9354;50.194;7.690;2022-08-11T09:02:24;29.20;58.70
18450;DHT22;9354;50.194;7.690;2022-08-11T09:04:52;29.30;58.40
18450;DHT22;9354;50.194;7.690;2022-08-11T09:07:22;29.50;58.20
18450;DHT22;9354;50.194;7.690;2022-08-11T09:09:57;29.60;58.00
18450;DHT22;9354;50.194;7.690;2022-08-11T09:12:26;29.70;57.40
18450;DHT22;9354;50.194;7.690;2022-08-11T09:14:54;29.70;57.00
18450;DHT22;9354;50.194;7.690;2022-08-11T09:17:33;29.70;56.70
18450;DHT22;9354;50.194;7.690;2022-08-11T09:20:07;29.70;55.80
18450;DHT22;9354;50.194;7.690;2022-08-11T09:22:37;29.70;55.50
18450;DHT22;9354;50.194;7.690;2022-08-11T09:25:27;29.80;55.10
18450;DHT22;9354;50.194;7.690;2022-08-11T09:28:15;29.70;55.00
18450;DHT22;9354;50.194;7.690;2022-08-11T09:30:44;29.90;55.50
18450;DHT22;9354;50.194;7.690;2022-08-11T09:33:15;30.00;55.20
18450;DHT22;9354;50.194;7.690;2022-08-11T09:35:43;30.10;54.30
18450;DHT22;9354;50.194;7.690;2022-08-11T09:38:15;30.10;54.00
18450;DHT22;9354;50.194;7.690;2022-08-11T09:41:05;30.10;54.20
18450;DHT22;9354;50.194;7.690;2022-08-11T09:43:36;30.20;53.70
18450;DHT22;9354;50.194;7.690;2022-08-11T09:46:25;30.20;53.70
18450;DHT22;9354;50.194;7.690;2022-08-11T09:48:56;30.20;53.50
18450;DHT22;9354;50.194;7.690;2022-08-11T09:51:27;30.30;53.50
18450;DHT22;9354;50.194;7.690;2022-08-11T09:53:58;30.40;53.70
18450;DHT22;9354;50.194;7.690;2022-08-11T09:56:28;30.50;53.60
18450;DHT22;9354;50.194;7.690;2022-08-11T09:59:13;30.60;53.50
18450;DHT22;9354;50.194;7.690;2022-08-11T10:01:44;30.80;53.20
18450;DHT22;9354;50.194;7.690;2022-08-11T10:04:15;30.70;52.20
18450;DHT22;9354;50.194;7.690;2022-08-11T10:06:48;30.60;52.50
18450;DHT22;9354;50.194;7.690;2022-08-11T10:09:35;30.60;52.70
18450;DHT22;9354;50.194;7.690;2022-08-11T10:12:07;30.70;52.60
18450;DHT22;9354;50.194;7.690;2022-08-11T10:14:40;30.60;52.90
18450;DHT22;9354;50.194;7.690;2022-08-11T10:17:25;30.80;53.20
18450;DHT22;9354;50.194;7.690;2022-08-11T10:19:55;30.90;53.30
18450;DHT22;9354;50.194;7.690;2022-08-11T10:22:24;31.10;53.90
18450;DHT22;9354;50.194;7.690;2022-08-11T10:25:10;31.20;52.60
18450;DHT22;9354;50.194;7.690;2022-08-11T10:27:58;31.10;52.90
18450;DHT22;9354;50.194;7.690;2022-08-11T10:30:29;31.00;52.90
18450;DHT22;9354;50.194;7.690;2022-08-11T10:33:16;31.10;52.90
18450;DHT22;9354;50.194;7.690;2022-08-11T10:36:03;31.20;53.00
18450;DHT22;9354;50.194;7.690;2022-08-11T10:38:32;31.30;52.60
18450;DHT22;9354;50.194;7.690;2022-08-11T10:41:01;31.50;51.20
18450;DHT22;9354;50.194;7.690;2022-08-11T10:43:48;31.40;50.10
18450;DHT22;9354;50.194;7.690;2022-08-11T10:46:19;31.30;50.20
18450;DHT22;9354;50.194;7.690;2022-08-11T10:49:05;31.40;49.70
18450;DHT22;9354;50.194;7.690;2022-08-11T10:51:33;31.40;49.00
18450;DHT22;9354;50.194;7.690;2022-08-11T10:54:20;31.30;49.00
18450;DHT22;9354;50.194;7.690;2022-08-11T10:57:05;31.20;49.30
18450;DHT22;9354;50.194;7.690;2022-08-11T10:59:52;31.20;49.70
18450;DHT22;9354;50.194;7.690;2022-08-11T11:02:20;31.20;49.40
18450;DHT22;9354;50.194;7.690;2022-08-11T11:05:02;31.30;49.20
18450;DHT22;9354;50.194;7.690;2022-08-11T11:07:38;31.50;49.20
18450;DHT22;9354;50.194;7.690;2022-08-11T11:10:09;31.70;49.30
18450;DHT22;9354;50.194;7.690;2022-08-11T11:12:40;31.80;48.90
18450;DHT22;9354;50.194;7.690;2022-08-11T11:15:30;31.80;49.00
18450;DHT22;9354;50.194;7.690;2022-08-11T11:18:18;32.00;48.90
18450;DHT22;9354;50.194;7.690;2022-08-11T11:20:50;32.00;48.80
18450;DHT22;9354;50.194;7.690;2022-08-11T11:23:37;32.10;48.70
18450;DHT22;9354;50.194;7.690;2022-08-11T11:26:30;32.30;48.70
18450;DHT22;9354;50.194;7.690;2022-08-11T11:29:14;32.40;48.10
18450;DHT22;9354;50.194;7.690;2022-08-11T11:31:52;32.40;48.10
18450;DHT22;9354;50.194;7.690;2022-08-11T11:37:18;32.60;48.10
18450;DHT22;9354;50.194;7.690;2022-08-11T11:39:46;32.60;48.10
18450;DHT22;9354;50.194;7.690;2022-08-11T11:42:15;32.70;47.90
18450;DHT22;9354;50.194;7.690;2022-08-11T11:44:46;32.70;47.90
18450;DHT22;9354;50.194;7.690;2022-08-11T11:47:16;32.80;48.00
18450;DHT22;9354;50.194;7.690;2022-08-11T11:49:45;32.90;47.60
18450;DHT22;9354;50.194;7.690;2022-08-11T11:52:15;32.90;47.40
18450;DHT22;9354;50.194;7.690;2022-08-11T11:54:45;32.80;46.90
18450;DHT22;9354;50.194;7.690;2022-08-11T11:57:17;32.60;47.40
18450;DHT22;9354;50.194;7.690;2022-08-11T12:00:05;32.60;47.90
18450;DHT22;9354;50.194;7.690;2022-08-11T12:02:53;32.80;47.90
18450;DHT22;9354;50.194;7.690;2022-08-11T12:05:21;32.80;47.40
18450;DHT22;9354;50.194;7.690;2022-08-11T12:07:49;32.40;47.30
18450;DHT22;9354;50.194;7.690;2022-08-11T12:10:34;32.20;48.10
18450;DHT22;9354;50.194;7.690;2022-08-11T12:13:02;32.20;48.20
18450;DHT22;9354;50.194;7.690;2022-08-11T12:15:47;32.40;48.00
18450;DHT22;9354;50.194;7.690;2022-08-11T12:18:17;32.60;48.00
18450;DHT22;9354;50.194;7.690;2022-08-11T12:20:46;32.80;47.70
18450;DHT22;9354;50.194;7.690;2022-08-11T12:23:14;32.90;47.10
18450;DHT22;9354;50.194;7.690;2022-08-11T12:25:59;32.90;47.60
18450;DHT22;9354;50.194;7.690;2022-08-11T12:28:45;32.90;47.60
18450;DHT22;9354;50.194;7.690;2022-08-11T12:31:13;33.00;48.10
18450;DHT22;9354;50.194;7.690;2022-08-11T12:33:42;33.10;47.70
18450;DHT22;9354;50.194;7.690;2022-08-11T12:36:11;33.20;47.50
18450;DHT22;9354;50.194;7.690;2022-08-11T12:38:43;33.30;47.70
18450;DHT22;9354;50.194;7.690;2022-08-11T12:41:13;33.40;47.90
18450;DHT22;9354;50.194;7.690;2022-08-11T12:44:00;33.50;48.00
18450;DHT22;9354;50.194;7.690;2022-08-11T12:46:45;33.70;47.40
18450;DHT22;9354;50.194;7.690;2022-08-11T12:49:18;33.50;47.10
18450;DHT22;9354;50.194;7.690;2022-08-11T12:52:06;33.40;47.10
18450;DHT22;9354;50.194;7.690;2022-08-11T12:54:39;33.40;47.30
18450;DHT22;9354;50.194;7.690;2022-08-11T12:57:13;33.50;46.70
18450;DHT22;9354;50.194;7.690;2022-08-11T12:59:59;33.50;46.30
18450;DHT22;9354;50.194;7.690;2022-08-11T13:02:46;33.20;46.50
18450;DHT22;9354;50.194;7.690;2022-08-11T13:05:32;33.00;46.20
18450;DHT22;9354;50.194;7.690;2022-08-11T13:08:00;32.90;47.10
18450;DHT22;9354;50.194;7.690;2022-08-11T13:10:29;32.90;47.10
18450;DHT22;9354;50.194;7.690;2022-08-11T13:13:17;33.10;47.20
18450;DHT22;9354;50.194;7.690;2022-08-11T13:15:46;33.20;47.40
18450;DHT22;9354;50.194;7.690;2022-08-11T13:18:15;33.40;47.30
18450;DHT22;9354;50.194;7.690;2022-08-11T13:20:45;33.40;46.50
18450;DHT22;9354;50.194;7.690;2022-08-11T13:23:15;33.20;46.80
18450;DHT22;9354;50.194;7.690;2022-08-11T13:25:42;33.20;46.80
18450;DHT22;9354;50.194;7.690;2022-08-11T13:28:10;33.00;46.60
18450;DHT22;9354;50.194;7.690;2022-08-11T13:30:40;32.90;47.10
18450;DHT22;9354;50.194;7.690;2022-08-11T13:33:25;33.10;47.60
18450;DHT22;9354;50.194;7.690;2022-08-11T13:35:54;33.20;47.50
18450;DHT22;9354;50.194;7.690;2022-08-11T13:38:23;33.40;47.00
18450;DHT22;9354;50.194;7.690;2022-08-11T13:40:54;33.50;47.00
18450;DHT22;9354;50.194;7.690;2022-08-11T13:43:22;33.50;47.00
18450;DHT22;9354;50.194;7.690;2022-08-11T13:45:51;33.70;47.10
18450;DHT22;9354;50.194;7.690;2022-08-11T13:48:40;33.70;47.00
18450;DHT22;9354;50.194;7.690;2022-08-11T13:51:10;33.90;46.90
18450;DHT22;9354;50.194;7.690;2022-08-11T13:54:00;33.70;46.00
18450;DHT22;9354;50.194;7.690;2022-08-11T13:56:28;33.50;46.20
18450;DHT22;9354;50.194;7.690;2022-08-11T13:58:57;33.50;46.50
18450;DHT22;9354;50.194;7.690;2022-08-11T14:01:28;33.50;46.20
18450;DHT22;9354;50.194;7.690;2022-08-11T14:04:02;33.30;46.30
18450;DHT22;9354;50.194;7.690;2022-08-11T14:06:32;33.30;46.20
18450;DHT22;9354;50.194;7.690;2022-08-11T14:09:03;33.30;46.20
18450;DHT22;9354;50.194;7.690;2022-08-11T14:11:35;33.10;46.00
18450;DHT22;9354;50.194;7.690;2022-08-11T14:14:24;33.00;46.20
18450;DHT22;9354;50.194;7.690;2022-08-11T14:16:55;32.80;46.70
18450;DHT22;9354;50.194;7.690;2022-08-11T14:19:24;32.90;46.70
18450;DHT22;9354;50.194;7.690;2022-08-11T14:21:54;32.70;46.30
18450;DHT22;9354;50.194;7.690;2022-08-11T14:24:34;32.60;46.50
18450;DHT22;9354;50.194;7.690;2022-08-11T14:27:03;32.70;46.50
18450;DHT22;9354;50.194;7.690;2022-08-11T14:29:31;32.50;46.40
18450;DHT22;9354;50.194;7.690;2022-08-11T14:32:05;32.40;47.20
18450;DHT22;9354;50.194;7.690;2022-08-11T14:34:35;32.50;47.20
18450;DHT22;9354;50.194;7.690;2022-08-11T14:37:07;32.60;47.30
18450;DHT22;9354;50.194;7.690;2022-08-11T14:39:43;32.70;47.10
18450;DHT22;9354;50.194;7.690;2022-08-11T14:42:13;32.80;46.90
18450;DHT22;9354;50.194;7.690;2022-08-11T14:45:01;32.80;46.80
18450;DHT22;9354;50.194;7.690;2022-08-11T14:47:48;32.70;46.90
18450;DHT22;9354;50.194;7.690;2022-08-11T14:50:20;32.70;47.30
18450;DHT22;9354;50.194;7.690;2022-08-11T14:52:51;32.70;47.00
18450;DHT22;9354;50.194;7.690;2022-08-11T14:55:24;32.70;47.30
18450;DHT22;9354;50.194;7.690;2022-08-11T14:58:10;32.70;47.30
18450;DHT22;9354;50.194;7.690;2022-08-11T15:00:40;32.80;48.30
18450;DHT22;9354;50.194;7.690;2022-08-11T15:03:09;32.90;47.40
18450;DHT22;9354;50.194;7.690;2022-08-11T15:05:39;32.90;47.30
18450;DHT22;9354;50.194;7.690;2022-08-11T15:08:12;32.90;47.30
18450;DHT22;9354;50.194;7.690;2022-08-11T15:10:40;32.90;47.20
18450;DHT22;9354;50.194;7.690;2022-08-11T15:13:09;32.90;47.30
18450;DHT22;9354;50.194;7.690;2022-08-11T15:15:38;32.80;47.40
18450;DHT22;9354;50.194;7.690;2022-08-11T15:18:24;32.90;47.10
18450;DHT22;9354;50.194;7.690;2022-08-11T15:20:52;32.90;47.00
18450;DHT22;9354;50.194;7.690;2022-08-11T15:23:39;32.80;47.10
18450;DHT22;9354;50.194;7.690;2022-08-11T15:26:30;32.80;47.30
18450;DHT22;9354;50.194;7.690;2022-08-11T15:29:19;32.80;47.20
18450;DHT22;9354;50.194;7.690;2022-08-11T15:32:08;32.90;47.30
18450;DHT22;9354;50.194;7.690;2022-08-11T15:34:59;33.00;47.20
18450;DHT22;9354;50.194;7.690;2022-08-11T15:37:45;33.10;46.60
18450;DHT22;9354;50.194;7.690;2022-08-11T15:40:17;32.90;46.50
18450;DHT22;9354;50.194;7.690;2022-08-11T15:43:07;32.80;46.70
18450;DHT22;9354;50.194;7.690;2022-08-11T15:45:56;32.80;47.60
18450;DHT22;9354;50.194;7.690;2022-08-11T15:48:38;32.80;46.90
18450;DHT22;9354;50.194;7.690;2022-08-11T15:51:10;32.80;47.10
18450;DHT22;9354;50.194;7.690;2022-08-11T15:53:40;32.80;47.10
18450;DHT22;9354;50.194;7.690;2022-08-11T15:56:11;32.70;47.30
18450;DHT22;9354;50.194;7.690;2022-08-11T15:58:42;32.70;47.60
18450;DHT22;9354;50.194;7.690;2022-08-11T16:01:28;32.70;47.60
18450;DHT22;9354;50.194;7.690;2022-08-11T16:04:15;32.60;47.60
18450;DHT22;9354;50.194;7.690;2022-08-11T16:06:48;32.40;47.40
18450;DHT22;9354;50.194;7.690;2022-08-11T16:09:31;32.30;47.50
18450;DHT22;9354;50.194;7.690;2022-08-11T16:12:03;32.20;47.20
18450;DHT22;9354;50.194;7.690;2022-08-11T16:14:35;32.10;47.60
18450;DHT22;9354;50.194;7.690;2022-08-11T16:17:23;31.90;47.70
18450;DHT22;9354;50.194;7.690;2022-08-11T16:19:53;31.80;47.80
18450;DHT22;9354;50.194;7.690;2022-08-11T16:22:25;31.70;48.20
18450;DHT22;9354;50.194;7.690;2022-08-11T16:25:00;31.70;48.10
18450;DHT22;9354;50.194;7.690;2022-08-11T16:27:32;31.80;47.90
18450;DHT22;9354;50.194;7.690;2022-08-11T16:30:02;31.90;48.20
18450;DHT22;9354;50.194;7.690;2022-08-11T16:32:32;32.10;47.30
18450;DHT22;9354;50.194;7.690;2022-08-11T16:35:02;31.90;47.10
18450;DHT22;9354;50.194;7.690;2022-08-11T16:37:48;31.90;46.90
18450;DHT22;9354;50.194;7.690;2022-08-11T16:40:33;31.90;47.00
18450;DHT22;9354;50.194;7.690;2022-08-11T16:43:05;31.80;47.20
18450;DHT22;9354;50.194;7.690;2022-08-11T16:45:52;31.70;47.30
18450;DHT22;9354;50.194;7.690;2022-08-11T16:48:39;31.70;47.20
18450;DHT22;9354;50.194;7.690;2022-08-11T16:51:10;31.60;47.00
18450;DHT22;9354;50.194;7.690;2022-08-11T16:53:39;31.60;47.00
18450;DHT22;9354;50.194;7.690;2022-08-11T16:56:07;31.50;47.00
18450;DHT22;9354;50.194;7.690;2022-08-11T16:58:38;31.50;47.10
18450;DHT22;9354;50.194;7.690;2022-08-11T17:01:26;31.50;47.10
18450;DHT22;9354;50.194;7.690;2022-08-11T17:03:58;31.40;47.00
18450;DHT22;9354;50.194;7.690;2022-08-11T17:06:46;31.50;47.10
18450;DHT22;9354;50.194;7.690;2022-08-11T17:09:34;31.50;47.10
18450;DHT22;9354;50.194;7.690;2022-08-11T17:12:22;31.40;47.30
18450;DHT22;9354;50.194;7.690;2022-08-11T17:15:14;31.30;47.40
18450;DHT22;9354;50.194;7.690;2022-08-11T17:18:02;31.30;47.50
18450;DHT22;9354;50.194;7.690;2022-08-11T17:20:31;31.10;47.30
18450;DHT22;9354;50.194;7.690;2022-08-11T17:23:02;30.90;47.60
18450;DHT22;9354;50.194;7.690;2022-08-11T17:25:48;30.80;47.90
18450;DHT22;9354;50.194;7.690;2022-08-11T17:28:17;30.70;48.10
18450;DHT22;9354;50.194;7.690;2022-08-11T17:30:47;30.60;48.30
18450;DHT22;9354;50.194;7.690;2022-08-11T17:33:34;30.50;48.50
18450;DHT22;9354;50.194;7.690;2022-08-11T17:36:28;30.40;48.80
18450;DHT22;9354;50.194;7.690;2022-08-11T17:38:55;30.30;49.00
18450;DHT22;9354;50.194;7.690;2022-08-11T17:41:23;30.20;49.30